createdAt,value
2018-03-11T00:02:27.019Z,11.29
2018-03-11T00:04:54.623Z,11.33
2018-03-11T00:07:22.261Z,11.33
2018-03-11T00:09:49.860Z,11.30
2018-03-11T00:12:17.719Z,11.31
2018-03-11T00:14:45.328Z,11.32
2018-03-11T00:17:12.934Z,11.34
2018-03-11T00:19:40.572Z,11.37
2018-03-11T00:22:08.178Z,11.28
2018-03-11T00:24:35.805Z,11.30
2018-03-11T00:27:03.408Z,11.28
2018-03-11T00:29:31.461Z,11.30
2018-03-11T00:31:59.056Z,11.31
2018-03-11T00:34:26.665Z,11.25
2018-03-11T00:36:54.297Z,11.23
2018-03-11T00:39:21.904Z,11.05
2018-03-11T00:41:49.538Z,11.20
2018-03-11T00:44:17.149Z,10.92
2018-03-11T00:46:44.790Z,10.85
2018-03-11T00:49:12.400Z,10.81
2018-03-11T00:51:40.011Z,10.80
2018-03-11T00:54:07.637Z,10.75
2018-03-11T00:56:35.243Z,10.76
2018-03-11T00:59:02.862Z,10.80
2018-03-11T01:01:30.466Z,10.77
2018-03-11T01:03:58.215Z,10.57
2018-03-11T01:06:25.816Z,10.65
2018-03-11T01:08:53.583Z,10.57
2018-03-11T01:11:21.216Z,10.48
2018-03-11T01:13:48.877Z,10.45
2018-03-11T01:16:16.500Z,10.45
2018-03-11T01:18:44.113Z,10.41
2018-03-11T01:21:12.056Z,10.34
2018-03-11T01:23:39.672Z,10.37
2018-03-11T01:26:07.278Z,10.37
2018-03-11T01:28:34.903Z,10.33
2018-03-11T01:31:02.530Z,10.39
2018-03-11T01:33:30.162Z,10.18
2018-03-11T01:35:57.770Z,10.12
2018-03-11T01:38:25.392Z,10.11
2018-03-11T01:40:53.023Z,10.08
2018-03-11T01:43:20.629Z,10.06
2018-03-11T01:45:48.268Z,10.06
2018-03-11T01:48:15.869Z,9.99
2018-03-11T01:50:43.488Z,10.01
2018-03-11T01:53:11.096Z,10.09
2018-03-11T01:55:39.019Z,10.17
2018-03-11T01:58:06.630Z,10.26
2018-03-11T02:00:34.257Z,10.26
2018-03-11T02:03:01.878Z,10.14
2018-03-11T02:05:29.484Z,10.14
2018-03-11T02:07:57.140Z,10.09
2018-03-11T02:10:24.747Z,9.93
2018-03-11T02:12:52.696Z,9.87
2018-03-11T02:15:20.284Z,9.93
2018-03-11T02:17:47.882Z,9.88
2018-03-11T02:20:15.493Z,9.88
2018-03-11T02:22:43.091Z,9.82
2018-03-11T02:25:10.733Z,9.80
2018-03-11T02:27:38.328Z,9.78
2018-03-11T02:30:06.145Z,9.62
2018-03-11T02:32:33.756Z,9.63
2018-03-11T02:35:01.369Z,9.60
2018-03-11T02:37:29.007Z,9.54
2018-03-11T02:39:56.616Z,9.45
2018-03-11T02:42:24.239Z,9.40
2018-03-11T02:44:51.850Z,9.55
2018-03-11T02:47:19.480Z,9.60
2018-03-11T02:49:47.145Z,9.48
2018-03-11T02:52:14.737Z,9.40
2018-03-11T02:54:42.360Z,9.46
2018-03-11T02:57:09.959Z,9.48
2018-03-11T02:59:37.582Z,9.50
2018-03-11T03:02:05.307Z,9.46
2018-03-11T03:04:32.958Z,9.44
2018-03-11T03:07:00.576Z,9.51
2018-03-11T03:09:28.180Z,9.42
2018-03-11T03:11:55.835Z,9.40
2018-03-11T03:14:23.444Z,9.35
2018-03-11T03:16:51.068Z,9.32
2018-03-11T03:19:18.663Z,9.23
2018-03-11T03:21:46.291Z,9.32
2018-03-11T03:24:13.888Z,9.21
2018-03-11T03:26:41.507Z,9.18
2018-03-11T03:29:09.130Z,9.12
2018-03-11T03:31:36.725Z,9.00
2018-03-11T03:34:04.395Z,9.12
2018-03-11T03:36:32.007Z,9.24
2018-03-11T03:38:59.649Z,9.26
2018-03-11T03:41:27.245Z,9.25
2018-03-11T03:43:54.849Z,9.31
2018-03-11T03:46:22.468Z,9.26
2018-03-11T03:48:50.059Z,9.19
2018-03-11T03:51:17.680Z,9.17
2018-03-11T03:53:45.271Z,9.13
2018-03-11T03:56:12.860Z,9.11
2018-03-11T03:58:40.503Z,9.10
2018-03-11T04:01:08.099Z,9.16
2018-03-11T04:03:35.828Z,9.19
2018-03-11T04:06:03.422Z,9.24
2018-03-11T04:08:31.038Z,9.23
2018-03-11T04:10:58.660Z,9.13
2018-03-11T04:13:26.257Z,9.11
2018-03-11T04:15:54.108Z,9.13
2018-03-11T04:18:21.708Z,9.05
2018-03-11T04:20:49.307Z,8.84
2018-03-11T04:23:16.925Z,8.94
2018-03-11T04:25:44.621Z,8.85
2018-03-11T04:28:12.232Z,8.93
2018-03-11T04:30:39.834Z,8.90
2018-03-11T04:33:07.448Z,9.02
2018-03-11T04:35:35.044Z,8.86
2018-03-11T04:38:02.660Z,8.84
2018-03-11T04:40:30.257Z,8.77
2018-03-11T04:42:57.896Z,8.81
2018-03-11T04:45:25.497Z,8.77
2018-03-11T04:47:53.088Z,8.86
2018-03-11T04:50:20.710Z,8.85
2018-03-11T04:52:48.304Z,8.94
2018-03-11T04:55:15.927Z,8.86
2018-03-11T04:57:43.521Z,8.84
2018-03-11T05:00:11.188Z,8.79
2018-03-11T05:02:38.786Z,8.72
2018-03-11T05:05:06.382Z,8.80
2018-03-11T05:07:34.000Z,8.74
2018-03-11T05:10:01.596Z,8.65
2018-03-11T05:12:29.211Z,8.59
2018-03-11T05:14:56.810Z,8.54
2018-03-11T05:17:24.575Z,8.57
2018-03-11T05:19:52.178Z,8.55
2018-03-11T05:22:19.765Z,8.62
2018-03-11T05:24:47.390Z,8.66
2018-03-11T05:27:14.985Z,8.61
2018-03-11T05:29:42.589Z,8.55
2018-03-11T05:32:10.204Z,8.61
2018-03-11T05:34:38.105Z,8.66
2018-03-11T05:37:05.693Z,8.66
2018-03-11T05:39:33.284Z,8.73
2018-03-11T05:42:00.904Z,8.78
2018-03-11T05:44:28.563Z,8.75
2018-03-11T05:46:56.144Z,8.57
2018-03-11T05:49:23.734Z,8.72
2018-03-11T05:51:51.529Z,8.81
2018-03-11T05:54:19.127Z,8.73
2018-03-11T05:56:46.716Z,8.74
2018-03-11T05:59:14.332Z,8.82
2018-03-11T06:01:41.936Z,8.86
2018-03-11T06:04:09.551Z,8.86
2018-03-11T06:06:37.142Z,8.80
2018-03-11T06:09:04.816Z,8.94
2018-03-11T06:11:32.408Z,8.95
2018-03-11T06:13:59.995Z,9.01
2018-03-11T06:16:27.614Z,9.02
2018-03-11T06:18:55.207Z,9.05
2018-03-11T06:21:22.815Z,9.03
2018-03-11T06:23:50.413Z,9.12
2018-03-11T06:26:18.042Z,9.15
2018-03-11T06:28:45.636Z,9.17
2018-03-11T06:31:13.233Z,9.26
2018-03-11T06:33:40.856Z,9.26
2018-03-11T06:36:08.453Z,9.29
2018-03-11T06:38:36.068Z,9.28
2018-03-11T06:41:03.656Z,9.38
2018-03-11T06:43:31.676Z,9.41
2018-03-11T06:45:59.280Z,9.34
2018-03-11T06:48:26.875Z,9.22
2018-03-11T06:50:54.487Z,9.30
2018-03-11T06:53:22.074Z,9.34
2018-03-11T06:55:49.689Z,9.34
2018-03-11T06:58:17.296Z,9.35
2018-03-11T07:00:45.121Z,9.40
2018-03-11T07:03:12.712Z,9.45
2018-03-11T07:05:40.308Z,9.70
2018-03-11T07:08:07.920Z,9.70
2018-03-11T07:10:35.511Z,9.63
2018-03-11T07:13:03.136Z,9.61
2018-03-11T07:15:30.725Z,9.69
2018-03-11T07:17:58.519Z,9.75
2018-03-11T07:20:26.121Z,9.66
2018-03-11T07:22:53.724Z,9.71
2018-03-11T07:25:21.346Z,9.82
2018-03-11T07:27:48.960Z,9.91
2018-03-11T07:30:16.597Z,9.78
2018-03-11T07:32:44.201Z,10.05
2018-03-11T07:35:12.018Z,10.17
2018-03-11T07:37:39.612Z,10.39
2018-03-11T07:40:07.203Z,10.44
2018-03-11T07:42:34.860Z,10.53
2018-03-11T07:45:02.456Z,10.70
2018-03-11T07:47:30.318Z,10.69
2018-03-11T07:49:57.915Z,10.71
2018-03-11T07:52:25.516Z,10.94
2018-03-11T07:54:53.136Z,10.92
2018-03-11T07:57:20.743Z,10.94
2018-03-11T07:59:48.371Z,11.16
2018-03-11T08:02:15.966Z,11.21
2018-03-11T08:04:43.860Z,11.40
2018-03-11T08:07:11.452Z,11.33
2018-03-11T08:09:39.048Z,11.47
2018-03-11T08:12:06.660Z,11.62
2018-03-11T08:14:34.315Z,11.78
2018-03-11T08:17:01.897Z,11.90
2018-03-11T08:19:29.488Z,11.92
2018-03-11T08:21:57.636Z,11.96
2018-03-11T08:24:25.236Z,12.03
2018-03-11T08:26:52.826Z,12.09
2018-03-11T08:29:20.436Z,12.09
2018-03-11T08:31:48.036Z,12.30
2018-03-11T08:36:42.562Z,12.41
2018-03-11T08:39:10.631Z,12.51
2018-03-11T08:41:38.229Z,12.66
2018-03-11T08:44:05.808Z,12.58
2018-03-11T08:46:33.433Z,12.68
2018-03-11T08:49:01.124Z,12.78
2018-03-11T08:51:28.748Z,12.88
2018-03-11T08:53:56.396Z,13.01
2018-03-11T08:56:24.053Z,12.98
2018-03-11T08:58:51.648Z,12.97
2018-03-11T09:01:19.257Z,13.09
2018-03-11T09:03:46.864Z,13.14
2018-03-11T09:06:14.540Z,13.24
2018-03-11T09:08:42.146Z,13.36
2018-03-11T09:11:09.770Z,13.34
2018-03-11T09:13:37.394Z,13.43
2018-03-11T09:16:04.989Z,13.51
2018-03-11T09:18:32.585Z,13.50
2018-03-11T09:21:00.192Z,13.44
2018-03-11T09:23:27.784Z,13.48
2018-03-11T09:25:55.396Z,13.57
2018-03-11T09:28:22.983Z,13.51
2018-03-11T09:30:50.819Z,13.53
2018-03-11T09:33:18.443Z,13.62
2018-03-11T09:35:46.031Z,13.75
2018-03-11T09:38:13.687Z,13.84
2018-03-11T09:40:41.417Z,13.90
2018-03-11T09:43:09.025Z,13.93
2018-03-11T09:45:36.611Z,14.05
2018-03-11T09:48:04.452Z,14.15
2018-03-11T09:50:32.050Z,14.28
2018-03-11T09:52:59.634Z,14.30
2018-03-11T09:55:27.240Z,14.29
2018-03-11T09:57:54.835Z,14.36
2018-03-11T10:00:22.464Z,14.54
2018-03-11T10:02:50.049Z,14.63
2018-03-11T10:05:17.639Z,14.86
2018-03-11T10:07:45.267Z,15.03
2018-03-11T10:10:12.884Z,15.00
2018-03-11T10:12:40.544Z,15.21
2018-03-11T10:15:08.231Z,15.26
2018-03-11T10:17:35.821Z,15.50
2018-03-11T10:20:03.475Z,15.62
2018-03-11T10:22:31.173Z,15.64
2018-03-11T10:24:58.785Z,15.81
2018-03-11T10:27:26.397Z,15.90
2018-03-11T10:29:54.012Z,15.88
2018-03-11T10:32:21.617Z,15.91
2018-03-11T10:34:49.208Z,16.02
2018-03-11T10:37:16.819Z,16.13
2018-03-11T10:39:44.420Z,16.11
2018-03-11T10:42:12.028Z,16.08
2018-03-11T10:44:39.623Z,16.06
2018-03-11T10:47:07.396Z,16.01
2018-03-11T10:49:34.985Z,16.02
2018-03-11T10:52:02.583Z,16.03
2018-03-11T10:54:30.193Z,15.96
2018-03-11T10:56:57.803Z,16.06
2018-03-11T10:59:25.423Z,16.04
2018-03-11T11:01:58.556Z,16.16
2018-03-11T11:07:28.686Z,16.01
2018-03-11T11:09:56.288Z,15.97
2018-03-11T11:12:23.871Z,16.05
2018-03-11T11:14:51.481Z,15.90
2018-03-11T11:17:19.087Z,15.93
2018-03-11T11:19:46.709Z,15.93
2018-03-11T11:22:14.320Z,15.85
2018-03-11T11:24:41.904Z,15.90
2018-03-11T11:27:09.531Z,15.83
2018-03-11T11:29:37.115Z,15.96
2018-03-11T11:32:04.696Z,15.92
2018-03-11T11:34:32.304Z,16.08
2018-03-11T11:36:59.890Z,16.08
2018-03-11T11:39:27.501Z,16.15
2018-03-11T11:41:55.108Z,16.30
2018-03-11T11:44:23.111Z,16.33
2018-03-11T11:46:50.700Z,16.46
2018-03-11T11:49:18.292Z,16.53
2018-03-11T11:51:45.895Z,16.58
2018-03-11T11:54:13.496Z,16.73
2018-03-11T11:56:42.005Z,16.75
2018-03-11T11:59:09.604Z,16.68
2018-03-11T12:01:37.234Z,16.60
2018-03-11T12:04:04.840Z,16.67
2018-03-11T12:06:32.449Z,16.65
2018-03-11T12:09:00.060Z,16.72
2018-03-11T12:11:27.648Z,16.65
2018-03-11T12:13:55.260Z,16.53
2018-03-11T12:16:24.573Z,16.60
2018-03-11T12:18:52.212Z,16.62
2018-03-11T12:21:19.796Z,16.68
2018-03-11T12:23:47.388Z,16.73
2018-03-11T12:26:15.011Z,16.79
2018-03-11T12:28:42.607Z,16.84
2018-03-11T12:31:10.239Z,16.95
2018-03-11T12:33:37.833Z,17.07
2018-03-11T12:36:05.647Z,17.28
2018-03-11T12:38:33.238Z,17.28
2018-03-11T12:41:00.878Z,17.70
2018-03-11T12:43:28.464Z,18.24
2018-03-11T12:45:56.052Z,18.79
2018-03-11T12:48:23.891Z,19.00
2018-03-11T12:50:51.479Z,19.09
2018-03-11T12:53:19.432Z,19.64
2018-03-11T12:55:47.024Z,20.83
2018-03-11T12:58:14.613Z,21.53
2018-03-11T13:00:42.222Z,21.25
2018-03-11T13:03:09.830Z,21.56
2018-03-11T13:05:37.443Z,21.32
2018-03-11T13:08:05.052Z,21.32
2018-03-11T13:10:32.904Z,21.19
2018-03-11T13:13:00.495Z,20.31
2018-03-11T13:15:28.097Z,19.78
2018-03-11T13:17:55.709Z,19.49
2018-03-11T13:20:35.103Z,19.18
2018-03-11T13:23:02.733Z,19.08
2018-03-11T13:25:30.336Z,18.40
2018-03-11T13:31:06.025Z,19.00
2018-03-11T13:33:45.404Z,18.31
2018-03-11T13:36:13.003Z,18.28
2018-03-11T13:38:52.531Z,18.36
2018-03-11T13:41:20.132Z,18.64
2018-03-11T13:43:47.726Z,18.84
2018-03-11T13:46:27.104Z,19.33
2018-03-11T13:48:54.704Z,19.64
2018-03-11T13:51:33.987Z,20.06
2018-03-11T13:54:01.597Z,20.02
2018-03-11T13:56:29.225Z,20.39
2018-03-11T13:58:56.828Z,20.25
2018-03-11T14:01:24.443Z,19.93
2018-03-11T14:03:52.034Z,19.53
2018-03-11T14:06:19.639Z,19.65
2018-03-11T14:08:47.232Z,19.07
2018-03-11T14:11:14.870Z,19.20
2018-03-11T14:13:42.555Z,19.43
2018-03-11T14:16:10.317Z,19.53
2018-03-11T14:18:37.926Z,19.43
2018-03-11T14:21:09.895Z,19.31
2018-03-11T14:23:42.800Z,19.55
2018-03-11T14:26:21.154Z,19.74
2018-03-11T14:28:49.483Z,19.57
2018-03-11T14:31:17.084Z,19.43
2018-03-11T14:33:44.667Z,19.39
2018-03-11T14:36:12.288Z,19.26
2018-03-11T14:38:39.885Z,19.35
2018-03-11T14:41:07.516Z,19.22
2018-03-11T14:43:35.113Z,19.00
2018-03-11T14:46:03.015Z,18.91
2018-03-11T14:48:30.599Z,18.86
2018-03-11T14:50:58.202Z,18.80
2018-03-11T14:53:25.824Z,18.65
2018-03-11T14:55:53.412Z,18.52
2018-03-11T14:58:21.038Z,18.42
2018-03-11T15:00:48.795Z,18.32
2018-03-11T15:03:16.436Z,18.29
2018-03-11T15:05:44.036Z,18.25
2018-03-11T15:08:15.675Z,18.30
2018-03-11T15:10:43.290Z,18.24
2018-03-11T15:13:10.894Z,18.22
2018-03-11T15:15:38.510Z,18.18
2018-03-11T15:18:06.118Z,18.24
2018-03-11T15:20:33.933Z,18.12
2018-03-11T15:23:01.520Z,18.00
2018-03-11T15:25:29.108Z,17.79
2018-03-11T15:27:56.747Z,17.61
2018-03-11T15:30:24.381Z,17.52
2018-03-11T15:32:52.141Z,17.51
2018-03-11T15:35:19.745Z,17.46
2018-03-11T15:37:47.526Z,17.33
2018-03-11T15:40:15.148Z,17.32
2018-03-11T15:42:42.754Z,17.30
2018-03-11T15:45:10.392Z,17.22
2018-03-11T15:47:37.982Z,17.07
2018-03-11T15:50:05.605Z,17.13
2018-03-11T15:52:33.209Z,17.18
2018-03-11T15:55:00.955Z,17.09
2018-03-11T15:57:28.550Z,17.01
2018-03-11T15:59:56.161Z,16.88
2018-03-11T16:02:23.789Z,16.87
2018-03-11T16:04:51.400Z,16.86
2018-03-11T16:07:19.050Z,16.85
2018-03-11T16:09:46.657Z,16.80
2018-03-11T16:12:14.268Z,16.78
2018-03-11T16:14:41.877Z,16.80
2018-03-11T16:17:09.492Z,16.72
2018-03-11T16:19:37.112Z,16.64
2018-03-11T16:22:04.704Z,16.63
2018-03-11T16:24:39.616Z,16.57
2018-03-11T16:27:00.161Z,16.72
2018-03-11T16:29:27.812Z,16.58
2018-03-11T16:31:55.440Z,16.43
2018-03-11T16:34:23.161Z,16.40
2018-03-11T16:36:50.855Z,16.40
2018-03-11T16:39:18.445Z,16.34
2018-03-11T16:41:46.080Z,16.18
2018-03-11T16:44:13.682Z,16.13
2018-03-11T16:46:41.280Z,16.03
2018-03-11T16:49:08.891Z,15.97
2018-03-11T16:51:36.487Z,16.00
2018-03-11T16:54:04.179Z,15.90
2018-03-11T16:56:31.773Z,15.88
2018-03-11T16:58:59.836Z,15.89
2018-03-11T17:01:27.425Z,15.84
2018-03-11T17:03:55.013Z,15.83
2018-03-11T17:06:22.621Z,15.93
2018-03-11T17:08:50.251Z,15.96
2018-03-11T17:11:17.876Z,16.05
2018-03-11T17:13:45.517Z,15.95
2018-03-11T17:16:13.384Z,15.78
2018-03-11T17:18:41.057Z,15.78
2018-03-11T17:21:08.646Z,15.68
2018-03-11T17:23:36.261Z,15.79
2018-03-11T17:26:03.890Z,15.67
2018-03-11T17:28:31.512Z,15.60
2018-03-11T17:30:59.126Z,15.78
2018-03-11T17:33:26.836Z,15.79
2018-03-11T17:35:54.446Z,15.56
2018-03-11T17:38:22.043Z,15.50
2018-03-11T17:40:49.652Z,15.58
2018-03-11T17:43:17.263Z,15.48
2018-03-11T17:45:44.888Z,15.46
2018-03-11T17:48:12.483Z,15.53
2018-03-11T17:50:40.409Z,15.55
2018-03-11T17:53:08.052Z,15.47
2018-03-11T17:55:36.169Z,15.48
2018-03-11T17:58:03.771Z,15.70
2018-03-11T18:00:31.371Z,15.52
2018-03-11T18:02:59.020Z,15.38
2018-03-11T18:05:26.620Z,15.18
2018-03-11T18:07:54.275Z,15.15
2018-03-11T18:10:21.863Z,15.05
2018-03-11T18:12:49.818Z,15.01
2018-03-11T18:15:17.445Z,15.11
2018-03-11T18:17:45.354Z,15.10
2018-03-11T18:20:12.972Z,15.09
2018-03-11T18:22:40.564Z,15.22
2018-03-11T18:25:08.189Z,15.15
2018-03-11T18:27:35.791Z,15.11
2018-03-11T18:30:03.394Z,15.11
2018-03-11T18:32:31.004Z,15.01
2018-03-11T18:34:58.587Z,14.96
2018-03-11T18:37:26.231Z,14.99
2018-03-11T18:39:53.822Z,14.88
2018-03-11T18:42:21.451Z,14.71
2018-03-11T18:44:49.043Z,14.60
2018-03-11T18:47:16.645Z,14.50
2018-03-11T18:49:44.263Z,14.48
2018-03-11T18:52:11.866Z,14.53
2018-03-11T18:54:39.508Z,14.55
2018-03-11T18:57:07.115Z,14.60
2018-03-11T18:59:34.754Z,14.55
2018-03-11T19:02:02.363Z,14.56
2018-03-11T19:04:29.956Z,14.58
2018-03-11T19:06:57.577Z,14.56
2018-03-11T19:09:25.167Z,14.50
2018-03-11T19:11:52.781Z,14.48
2018-03-11T19:14:20.392Z,14.50
2018-03-11T19:16:47.987Z,14.67
2018-03-11T19:19:15.611Z,14.66
2018-03-11T19:21:43.211Z,14.50
2018-03-11T19:24:10.824Z,14.50
2018-03-11T19:26:38.421Z,14.49
2018-03-11T19:29:06.047Z,14.45
2018-03-11T19:31:33.720Z,14.38
2018-03-11T19:34:01.349Z,14.34
2018-03-11T19:36:28.944Z,14.36
2018-03-11T19:38:56.733Z,14.32
2018-03-11T19:41:24.354Z,14.21
2018-03-11T19:43:51.947Z,14.16
2018-03-11T19:46:19.557Z,14.07
2018-03-11T19:48:47.261Z,13.99
2018-03-11T19:51:15.173Z,13.99
2018-03-11T19:53:42.769Z,13.95
2018-03-11T19:56:10.429Z,13.99
2018-03-11T19:58:38.037Z,13.96
2018-03-11T20:01:05.656Z,13.94
2018-03-11T20:03:33.278Z,13.92
2018-03-11T20:06:00.888Z,13.94
2018-03-11T20:08:28.511Z,13.91
2018-03-11T20:10:56.108Z,13.92
2018-03-11T20:13:23.838Z,13.62
2018-03-11T20:15:51.438Z,13.68
2018-03-11T20:18:19.039Z,13.84
2018-03-11T20:20:46.653Z,13.94
2018-03-11T20:23:14.272Z,14.08
2018-03-11T20:25:41.889Z,13.93
2018-03-11T20:28:09.482Z,13.78
2018-03-11T20:30:37.175Z,13.75
2018-03-11T20:33:04.930Z,13.73
2018-03-11T20:35:32.527Z,14.00
2018-03-11T20:38:00.156Z,14.05
2018-03-11T20:40:27.786Z,14.00
2018-03-11T20:42:55.395Z,13.82
2018-03-11T20:45:23.022Z,13.77
2018-03-11T20:47:51.184Z,13.70
2018-03-11T20:50:18.803Z,13.55
2018-03-11T20:52:46.434Z,13.60
2018-03-11T20:55:14.371Z,13.58
2018-03-11T20:57:41.968Z,13.57
2018-03-11T21:00:09.564Z,13.55
2018-03-11T21:02:37.183Z,13.58
2018-03-11T21:05:04.787Z,13.53
2018-03-11T21:07:32.423Z,13.58
2018-03-11T21:10:00.039Z,13.72
2018-03-11T21:12:27.703Z,13.49
2018-03-11T21:14:55.299Z,13.51
2018-03-11T21:17:22.894Z,13.58
2018-03-11T21:19:50.520Z,13.32
2018-03-11T21:22:18.132Z,13.40
2018-03-11T21:24:45.756Z,13.40
2018-03-11T21:27:13.470Z,13.55
2018-03-11T21:29:41.224Z,13.55
2018-03-11T21:32:08.817Z,13.52
2018-03-11T21:34:36.429Z,13.24
2018-03-11T21:37:04.633Z,13.14
2018-03-11T21:39:32.236Z,12.92
2018-03-11T21:41:59.864Z,13.01
2018-03-11T21:44:27.467Z,13.08
2018-03-11T21:46:55.135Z,12.97
2018-03-11T21:49:22.745Z,12.90
2018-03-11T21:51:50.342Z,12.97
2018-03-11T21:54:17.959Z,12.99
2018-03-11T21:56:45.562Z,13.06
2018-03-11T21:59:13.184Z,13.11
2018-03-11T22:01:40.784Z,13.07
2018-03-11T22:04:08.608Z,13.00
2018-03-11T22:06:36.206Z,13.02
2018-03-11T22:09:03.815Z,13.03
2018-03-11T22:11:31.425Z,12.94
2018-03-11T22:13:59.036Z,12.87
2018-03-11T22:16:26.657Z,12.74
2018-03-11T22:18:54.248Z,12.79
2018-03-11T22:21:22.151Z,12.82
2018-03-11T22:23:49.744Z,12.77
2018-03-11T22:26:18.453Z,12.78
2018-03-11T22:28:49.595Z,12.51
2018-03-11T22:31:17.185Z,12.33
2018-03-11T22:33:44.798Z,12.45
2018-03-11T22:36:12.399Z,12.59
2018-03-11T22:38:40.180Z,12.59
2018-03-11T22:41:07.785Z,12.59
2018-03-11T22:43:35.378Z,12.62
2018-03-11T22:46:02.998Z,12.68
2018-03-11T22:48:30.580Z,12.68
2018-03-11T22:50:58.206Z,12.66
2018-03-11T22:53:25.880Z,12.64
2018-03-11T22:55:53.458Z,12.57
2018-03-11T22:58:21.061Z,12.76
2018-03-11T23:00:48.802Z,12.80
2018-03-11T23:03:16.421Z,12.71
2018-03-11T23:05:44.020Z,12.48
2018-03-11T23:08:11.642Z,12.49
2018-03-11T23:10:39.241Z,12.45
2018-03-11T23:13:06.896Z,12.46
2018-03-11T23:15:34.498Z,12.71
2018-03-11T23:18:02.087Z,12.75
2018-03-11T23:20:29.706Z,12.73
2018-03-11T23:22:57.306Z,12.64
2018-03-11T23:25:24.936Z,12.70
2018-03-11T23:27:52.524Z,12.60
2018-03-11T23:30:20.464Z,12.51
2018-03-11T23:32:48.052Z,12.52
2018-03-11T23:35:15.655Z,12.78
2018-03-11T23:37:43.269Z,12.84
2018-03-11T23:40:10.873Z,12.71
2018-03-11T23:42:38.505Z,12.68
2018-03-11T23:45:06.101Z,12.68
2018-03-11T23:47:34.107Z,12.62
2018-03-11T23:50:01.713Z,12.49
2018-03-11T23:52:29.299Z,12.54
2018-03-11T23:54:56.939Z,12.63
2018-03-11T23:57:24.527Z,12.70
2018-03-11T23:59:52.143Z,12.69
